createdAt,value
2019-05-20T00:00:01.085Z,15
2019-05-20T00:01:01.085Z,16
2019-05-20T00:05:01.092Z,15
2019-05-20T00:06:01.103Z,14
2019-05-20T00:08:01.086Z,15
2019-05-20T00:10:01.087Z,16
2019-05-20T00:12:01.085Z,15
2019-05-20T00:13:01.086Z,16
2019-05-20T00:15:01.087Z,16
2019-05-20T00:16:01.088Z,17
2019-05-20T00:17:01.088Z,18
2019-05-20T00:18:01.098Z,17
2019-05-20T00:19:01.090Z,16
2019-05-20T00:20:01.098Z,17
2019-05-20T00:24:01.088Z,18
2019-05-20T00:25:01.622Z,19
2019-05-20T00:26:01.089Z,20
2019-05-20T00:27:01.088Z,19
2019-05-20T00:29:01.088Z,21
2019-05-20T00:30:01.099Z,19
2019-05-20T00:31:01.094Z,18
2019-05-20T00:32:01.088Z,19
2019-05-20T00:33:01.089Z,18
2019-05-20T00:34:01.095Z,16
2019-05-20T00:35:01.095Z,17
2019-05-20T00:37:01.090Z,16
2019-05-20T00:38:01.088Z,17
2019-05-20T00:40:01.090Z,16
2019-05-20T00:41:01.088Z,15
2019-05-20T00:45:01.092Z,15
2019-05-20T00:48:01.089Z,14
2019-05-20T00:49:01.091Z,12
2019-05-20T00:51:01.090Z,13
2019-05-20T00:52:01.111Z,15
2019-05-20T00:53:01.090Z,16
2019-05-20T00:54:01.090Z,17
2019-05-20T00:55:01.095Z,18
2019-05-20T00:56:01.090Z,17
2019-05-20T00:59:01.091Z,16
2019-05-20T01:00:01.136Z,15
2019-05-20T01:01:01.091Z,16
2019-05-20T01:02:01.094Z,15
2019-05-20T01:03:01.092Z,14
2019-05-20T01:04:01.089Z,16
2019-05-20T01:05:01.098Z,17
2019-05-20T01:06:01.097Z,15
2019-05-20T01:07:01.120Z,19
2019-05-20T01:08:01.088Z,20
2019-05-20T01:09:01.088Z,18
2019-05-20T01:12:01.088Z,17
2019-05-20T01:13:01.125Z,18
2019-05-20T01:14:01.089Z,19
2019-05-20T01:15:01.090Z,18
2019-05-20T01:16:01.087Z,19
2019-05-20T01:17:01.113Z,17
2019-05-20T01:18:02.220Z,16
2019-05-20T01:21:01.090Z,17
2019-05-20T01:26:01.127Z,16
2019-05-20T01:27:01.091Z,15
2019-05-20T01:28:01.089Z,14
2019-05-20T01:29:01.120Z,16
2019-05-20T01:30:01.090Z,16
2019-05-20T01:31:01.089Z,17
2019-05-20T01:32:01.090Z,18
2019-05-20T01:33:13.104Z,20
2019-05-20T01:34:01.090Z,18
2019-05-20T01:37:01.093Z,21
2019-05-20T01:38:01.109Z,20
2019-05-20T01:39:01.092Z,21
2019-05-20T01:40:01.117Z,22
2019-05-20T01:41:01.092Z,21
2019-05-20T01:42:01.091Z,20
2019-05-20T01:45:01.122Z,18
2019-05-20T01:47:01.095Z,17
2019-05-20T01:49:01.100Z,16
2019-05-20T01:51:01.122Z,15
2019-05-20T01:52:01.090Z,14
2019-05-20T01:54:01.093Z,17
2019-05-20T01:55:01.091Z,16
2019-05-20T01:58:02.032Z,15
2019-05-20T02:00:01.089Z,16
2019-05-20T02:01:01.121Z,17
2019-05-20T02:03:01.095Z,18
2019-05-20T02:04:01.094Z,16
2019-05-20T02:05:01.087Z,17
2019-05-20T02:06:01.112Z,16
2019-05-20T02:07:01.089Z,15
2019-05-20T02:08:01.088Z,14
2019-05-20T02:09:01.091Z,15
2019-05-20T02:10:01.091Z,14
2019-05-20T02:11:01.118Z,15
2019-05-20T02:12:01.099Z,17
2019-05-20T02:15:01.089Z,18
2019-05-20T02:17:02.734Z,17
2019-05-20T02:19:01.094Z,19
2019-05-20T02:22:01.958Z,20
2019-05-20T02:24:01.088Z,18
2019-05-20T02:27:01.100Z,17
2019-05-20T02:28:01.087Z,16
2019-05-20T02:30:01.093Z,13
2019-05-20T02:31:01.092Z,12
2019-05-20T02:32:01.087Z,14
2019-05-20T02:33:01.088Z,17
2019-05-20T02:34:01.088Z,19
2019-05-20T02:35:01.087Z,21
2019-05-20T02:37:01.090Z,20
2019-05-20T02:38:01.092Z,17
2019-05-20T02:39:01.094Z,15
2019-05-20T02:40:01.091Z,14
2019-05-20T02:41:01.089Z,15
2019-05-20T02:42:01.089Z,16
2019-05-20T02:43:01.091Z,17
2019-05-20T02:44:01.094Z,18
2019-05-20T02:45:01.093Z,19
2019-05-20T02:46:01.089Z,18
2019-05-20T02:47:01.090Z,17
2019-05-20T02:48:01.098Z,18
2019-05-20T02:49:01.106Z,16
2019-05-20T02:50:01.100Z,15
2019-05-20T02:51:01.126Z,16
2019-05-20T02:52:01.100Z,15
2019-05-20T02:53:01.096Z,14
2019-05-20T02:54:01.091Z,15
2019-05-20T02:57:01.105Z,16
2019-05-20T02:58:01.890Z,18
2019-05-20T02:59:01.093Z,19
2019-05-20T03:00:01.094Z,18
2019-05-20T03:01:01.130Z,19
2019-05-20T03:02:01.103Z,20
2019-05-20T03:03:01.113Z,19
2019-05-20T03:04:11.305Z,17
2019-05-20T03:06:01.168Z,15
2019-05-20T03:07:06.101Z,14
2019-05-20T03:08:01.121Z,15
2019-05-20T03:09:01.100Z,17
2019-05-20T03:10:01.095Z,18
2019-05-20T03:11:01.115Z,21
2019-05-20T03:12:01.101Z,20
2019-05-20T03:13:01.132Z,19
2019-05-20T03:14:01.097Z,18
2019-05-20T03:15:01.469Z,17
2019-05-20T03:16:01.096Z,15
2019-05-20T03:17:01.094Z,16
2019-05-20T03:18:01.094Z,14
2019-05-20T03:19:01.105Z,13
2019-05-20T03:28:01.096Z,15
2019-05-20T03:30:01.094Z,15
2019-05-20T03:31:01.094Z,16
2019-05-20T03:32:01.103Z,18
2019-05-20T03:35:01.642Z,19
2019-05-20T03:36:01.096Z,17
2019-05-20T03:37:01.095Z,16
2019-05-20T03:38:01.103Z,14
2019-05-20T03:39:01.100Z,15
2019-05-20T03:40:01.096Z,14
2019-05-20T03:41:01.095Z,16
2019-05-20T03:42:01.095Z,15
2019-05-20T03:43:01.099Z,16
2019-05-20T03:45:01.096Z,14
2019-05-20T03:49:01.099Z,13
2019-05-20T03:50:01.111Z,15
2019-05-20T03:51:01.100Z,16
2019-05-20T03:52:01.221Z,15
2019-05-20T03:54:01.104Z,16
2019-05-20T03:55:01.106Z,17
2019-05-20T03:57:01.106Z,18
2019-05-20T03:58:06.112Z,17
2019-05-20T04:00:01.106Z,16
2019-05-20T04:01:01.119Z,15
2019-05-20T04:02:01.111Z,16
2019-05-20T04:05:02.991Z,17
2019-05-20T04:06:01.104Z,16
2019-05-20T04:07:01.105Z,15
2019-05-20T04:08:01.105Z,16
2019-05-20T04:09:01.125Z,17
2019-05-20T04:10:01.119Z,18
2019-05-20T04:11:02.039Z,19
2019-05-20T04:12:01.100Z,20
2019-05-20T04:13:01.113Z,18
2019-05-20T04:14:06.106Z,17
2019-05-20T04:15:01.192Z,18
2019-05-20T04:17:01.153Z,16
2019-05-20T04:18:01.128Z,17
2019-05-20T04:20:01.103Z,15
2019-05-20T04:21:01.104Z,17
2019-05-20T04:22:01.103Z,18
2019-05-20T04:23:01.104Z,17
2019-05-20T04:25:01.110Z,15
2019-05-20T04:26:01.107Z,14
2019-05-20T04:27:01.113Z,15
2019-05-20T04:28:01.099Z,16
2019-05-20T04:29:01.135Z,19
2019-05-20T04:31:01.100Z,20
2019-05-20T04:33:01.084Z,19
2019-05-20T04:34:01.087Z,18
2019-05-20T04:35:18.630Z,17
2019-05-20T04:36:01.057Z,16
2019-05-20T04:38:01.098Z,17
2019-05-20T04:41:01.085Z,16
2019-05-20T04:42:01.087Z,17
2019-05-20T04:43:01.095Z,15
2019-05-20T04:44:01.100Z,16
2019-05-20T04:45:01.087Z,17
2019-05-20T04:46:01.087Z,18
2019-05-20T04:48:01.087Z,19
2019-05-20T04:50:01.151Z,20
2019-05-20T04:51:01.106Z,19
2019-05-20T04:52:01.084Z,18
2019-05-20T04:55:01.085Z,16
2019-05-20T04:58:01.084Z,18
2019-05-20T04:59:01.139Z,17
2019-05-20T05:00:01.092Z,18
2019-05-20T05:01:01.960Z,20
2019-05-20T05:03:01.089Z,17
2019-05-20T05:05:01.085Z,18
2019-05-20T05:06:01.087Z,17
2019-05-20T05:07:01.181Z,18
2019-05-20T05:12:01.094Z,17
2019-05-20T05:13:01.090Z,18
2019-05-20T05:14:01.086Z,20
2019-05-20T05:15:01.089Z,18
2019-05-20T05:19:01.086Z,15
2019-05-20T05:20:01.086Z,18
2019-05-20T05:21:01.085Z,17
2019-05-20T05:23:01.090Z,18
2019-05-20T05:24:01.086Z,21
2019-05-20T05:25:01.084Z,19
2019-05-20T05:26:01.096Z,21
2019-05-20T05:27:01.086Z,23
2019-05-20T05:28:01.086Z,22
2019-05-20T05:29:01.090Z,21
2019-05-20T05:30:01.088Z,20
2019-05-20T05:31:01.229Z,19
2019-05-20T05:32:01.090Z,17
2019-05-20T05:33:01.090Z,16
2019-05-20T05:35:01.092Z,18
2019-05-20T05:37:01.087Z,16
2019-05-20T05:38:02.627Z,17
2019-05-20T05:39:01.087Z,16
2019-05-20T05:41:01.089Z,15
2019-05-20T05:42:01.091Z,18
2019-05-20T05:45:01.092Z,16
2019-05-20T05:48:01.130Z,18
2019-05-20T05:50:01.089Z,21
2019-05-20T05:51:01.090Z,22
2019-05-20T05:52:01.091Z,21
2019-05-20T05:53:01.135Z,19
2019-05-20T05:54:01.093Z,18
2019-05-20T05:55:01.175Z,16
2019-05-20T06:00:01.106Z,15
2019-05-20T06:01:01.719Z,16
2019-05-20T06:02:01.247Z,15
2019-05-20T06:03:01.091Z,16
2019-05-20T06:04:01.091Z,17
2019-05-20T06:05:01.093Z,18
2019-05-20T06:06:11.053Z,17
2019-05-20T06:07:01.093Z,18
2019-05-20T06:08:01.097Z,19
2019-05-20T06:09:01.090Z,18
2019-05-20T06:10:01.091Z,17
2019-05-20T06:11:01.091Z,16
2019-05-20T06:13:01.094Z,14
2019-05-20T06:14:01.090Z,15
2019-05-20T06:15:01.091Z,14
2019-05-20T06:17:01.090Z,13
2019-05-20T06:18:01.092Z,14
2019-05-20T06:21:01.109Z,17
2019-05-20T06:23:01.091Z,18
2019-05-20T06:24:01.092Z,19
2019-05-20T06:25:01.091Z,22
2019-05-20T06:26:01.099Z,19
2019-05-20T06:27:01.094Z,21
2019-05-20T06:28:01.096Z,19
2019-05-20T06:29:02.863Z,17
2019-05-20T06:30:01.103Z,15
2019-05-20T06:31:01.091Z,16
2019-05-20T06:32:01.092Z,15
2019-05-20T06:34:01.201Z,16
2019-05-20T06:35:01.111Z,17
2019-05-20T06:37:01.091Z,18
2019-05-20T06:38:01.088Z,17
2019-05-20T06:40:01.089Z,15
2019-05-20T06:41:01.086Z,16
2019-05-20T06:42:01.088Z,15
2019-05-20T06:44:01.088Z,17
2019-05-20T06:45:01.089Z,19
2019-05-20T06:47:01.870Z,21
2019-05-20T06:49:01.089Z,20
2019-05-20T06:50:01.089Z,19
2019-05-20T06:52:01.086Z,20
2019-05-20T06:53:01.091Z,21
2019-05-20T06:55:01.086Z,19
2019-05-20T06:56:01.087Z,17
2019-05-20T06:57:01.117Z,14
2019-05-20T06:59:01.088Z,13
2019-05-20T07:00:01.088Z,14
2019-05-20T07:02:01.227Z,16
2019-05-20T07:03:01.088Z,15
2019-05-20T07:04:01.086Z,16
2019-05-20T07:05:01.110Z,17
2019-05-20T07:06:01.088Z,18
2019-05-20T07:08:01.478Z,19
2019-05-20T07:10:01.110Z,18
2019-05-20T07:12:01.086Z,17
2019-05-20T07:13:01.162Z,16
2019-05-20T07:14:01.086Z,15
2019-05-20T07:15:01.131Z,16
2019-05-20T07:16:01.098Z,15
2019-05-20T07:17:01.090Z,14
2019-05-20T07:18:01.088Z,15
2019-05-20T07:19:01.411Z,16
2019-05-20T07:21:01.117Z,17
2019-05-20T07:22:01.088Z,19
2019-05-20T07:23:01.123Z,18
2019-05-20T07:24:01.087Z,20
2019-05-20T07:25:01.088Z,19
2019-05-20T07:26:01.120Z,18
2019-05-20T07:27:01.088Z,16
2019-05-20T07:28:01.087Z,18
2019-05-20T07:29:01.090Z,16
2019-05-20T07:30:06.104Z,17
2019-05-20T07:32:01.088Z,18
2019-05-20T07:33:01.124Z,17
2019-05-20T07:37:03.509Z,16
2019-05-20T07:38:01.119Z,15
2019-05-20T07:39:01.096Z,14
2019-05-20T07:41:01.089Z,17
2019-05-20T07:42:01.091Z,18
2019-05-20T07:43:01.107Z,19
2019-05-20T07:44:01.109Z,21
2019-05-20T07:45:01.099Z,20
2019-05-20T07:46:03.173Z,18
2019-05-20T07:47:01.087Z,19
2019-05-20T07:48:01.087Z,20
2019-05-20T07:49:01.150Z,18
2019-05-20T07:54:01.402Z,17
2019-05-20T07:57:01.117Z,16
2019-05-20T07:58:01.098Z,15
2019-05-20T07:59:01.090Z,16
2019-05-20T08:00:01.161Z,18
2019-05-20T08:01:01.091Z,17
2019-05-20T08:02:01.087Z,18
2019-05-20T08:05:01.136Z,16
2019-05-20T08:06:01.091Z,17
2019-05-20T08:07:01.169Z,16
2019-05-20T08:08:01.274Z,15
2019-05-20T08:11:01.114Z,17
2019-05-20T08:12:01.112Z,19
2019-05-20T08:13:01.091Z,20
2019-05-20T08:15:01.095Z,20
2019-05-20T08:16:01.094Z,19
2019-05-20T08:19:01.384Z,20
2019-05-20T08:20:01.096Z,19
2019-05-20T08:21:01.092Z,17
2019-05-20T08:22:01.113Z,14
2019-05-20T08:23:01.090Z,13
2019-05-20T08:24:01.092Z,14
2019-05-20T08:25:01.090Z,16
2019-05-20T08:26:01.729Z,18
2019-05-20T08:27:01.118Z,20
2019-05-20T08:28:01.092Z,21
2019-05-20T08:29:01.093Z,20
2019-05-20T08:30:01.092Z,19
2019-05-20T08:31:01.092Z,17
2019-05-20T08:32:01.120Z,18
2019-05-20T08:34:01.092Z,17
2019-05-20T08:36:01.095Z,18
2019-05-20T08:37:01.124Z,16
2019-05-20T08:39:01.105Z,17
2019-05-20T08:41:01.095Z,16
2019-05-20T08:43:01.135Z,15
2019-05-20T08:45:02.675Z,15
2019-05-20T08:47:01.143Z,16
2019-05-20T08:48:01.097Z,17
2019-05-20T08:49:01.097Z,18
2019-05-20T08:50:01.573Z,17
2019-05-20T08:53:01.149Z,16
2019-05-20T08:54:01.124Z,18
2019-05-20T08:55:01.098Z,17
2019-05-20T08:56:01.132Z,20
2019-05-20T08:57:01.131Z,19
2019-05-20T09:00:01.125Z,18
2019-05-20T09:01:01.099Z,16
2019-05-20T09:02:01.119Z,17
2019-05-20T09:03:01.101Z,16
2019-05-20T09:04:01.096Z,15
2019-05-20T09:05:01.111Z,17
2019-05-20T09:06:01.104Z,18
2019-05-20T09:08:03.297Z,19
2019-05-20T09:09:01.107Z,18
2019-05-20T09:10:01.114Z,17
2019-05-20T09:12:01.126Z,15
2019-05-20T09:14:01.096Z,14
2019-05-20T09:15:01.104Z,13
2019-05-20T09:18:01.122Z,15
2019-05-20T09:20:01.095Z,17
2019-05-20T09:21:01.100Z,16
2019-05-20T09:22:01.164Z,17
2019-05-20T09:23:02.745Z,16
2019-05-20T09:24:01.099Z,17
2019-05-20T09:27:01.155Z,16
2019-05-20T09:28:01.129Z,15
2019-05-20T09:30:01.163Z,15
2019-05-20T09:31:01.108Z,17
2019-05-20T09:35:01.096Z,14
2019-05-20T09:39:01.100Z,13
2019-05-20T09:40:01.113Z,15
2019-05-20T09:42:01.098Z,14
2019-05-20T09:44:01.098Z,15
2019-05-20T09:45:06.106Z,16
2019-05-20T09:46:07.226Z,17
2019-05-20T09:48:01.098Z,18
2019-05-20T09:49:01.120Z,20
2019-05-20T09:50:01.144Z,19
2019-05-20T09:54:01.103Z,17
2019-05-20T09:56:01.104Z,16
2019-05-20T09:57:01.104Z,17
2019-05-20T10:00:01.324Z,18
2019-05-20T10:02:01.103Z,19
2019-05-20T10:03:01.254Z,17
2019-05-20T10:04:01.100Z,18
2019-05-20T10:05:01.104Z,16
2019-05-20T10:06:01.215Z,15
2019-05-20T10:07:01.102Z,14
2019-05-20T10:08:01.102Z,15
2019-05-20T10:10:01.105Z,16
2019-05-20T10:11:01.424Z,17
2019-05-20T10:12:01.108Z,18
2019-05-20T10:14:01.084Z,17
2019-05-20T10:15:01.086Z,19
2019-05-20T10:16:01.084Z,18
2019-05-20T10:17:01.300Z,19
2019-05-20T10:19:01.089Z,18
2019-05-20T10:20:01.085Z,16
2019-05-20T10:21:01.084Z,17
2019-05-20T10:22:01.086Z,18
2019-05-20T10:23:01.088Z,16
2019-05-20T10:24:01.907Z,17
2019-05-20T10:25:01.088Z,18
2019-05-20T10:26:01.082Z,16
2019-05-20T10:27:01.083Z,17
2019-05-20T10:28:01.091Z,18
2019-05-20T10:30:01.086Z,18
2019-05-20T10:31:01.084Z,19
2019-05-20T10:32:01.098Z,16
2019-05-20T10:34:01.106Z,15
2019-05-20T10:35:02.836Z,14
2019-05-20T10:36:01.083Z,16
2019-05-20T10:37:01.089Z,17
2019-05-20T10:39:01.114Z,20
2019-05-20T10:41:01.098Z,18
2019-05-20T10:42:01.084Z,19
2019-05-20T10:43:01.084Z,18
2019-05-20T10:44:01.110Z,16
2019-05-20T10:45:01.088Z,14
2019-05-20T10:46:01.085Z,13
2019-05-20T10:50:01.092Z,15
2019-05-20T10:53:01.085Z,16
2019-05-20T10:54:01.123Z,14
2019-05-20T10:58:01.087Z,16
2019-05-20T11:00:01.099Z,16
2019-05-20T11:01:03.357Z,17
2019-05-20T11:03:02.080Z,15
2019-05-20T11:04:01.112Z,17
2019-05-20T11:05:01.092Z,18
2019-05-20T11:06:01.090Z,17
2019-05-20T11:07:01.090Z,18
2019-05-20T11:09:13.456Z,17
2019-05-20T11:10:01.093Z,16
2019-05-20T11:11:01.094Z,17
2019-05-20T11:13:01.092Z,18
2019-05-20T11:14:01.111Z,19
2019-05-20T11:15:01.087Z,18
2019-05-20T11:16:01.099Z,17
2019-05-20T11:18:01.091Z,14
2019-05-20T11:19:01.090Z,15
2019-05-20T11:20:01.116Z,17
2019-05-20T11:21:01.090Z,18
2019-05-20T11:22:01.086Z,17
2019-05-20T11:23:02.610Z,18
2019-05-20T11:24:01.086Z,17
2019-05-20T11:27:01.087Z,19
2019-05-20T11:29:01.116Z,20
2019-05-20T11:30:01.102Z,18
2019-05-20T11:32:01.096Z,17
2019-05-20T11:34:01.087Z,18
2019-05-20T11:35:01.216Z,17
2019-05-20T11:37:01.088Z,18
2019-05-20T11:38:01.088Z,17
2019-05-20T11:39:01.088Z,16
2019-05-20T11:40:01.088Z,18
2019-05-20T11:41:01.087Z,17
2019-05-20T11:42:01.087Z,16
2019-05-20T11:43:01.090Z,17
2019-05-20T11:44:01.086Z,19
2019-05-20T11:45:01.088Z,17
2019-05-20T11:46:01.087Z,18
2019-05-20T11:48:02.150Z,17
2019-05-20T11:50:01.091Z,18
2019-05-20T11:51:01.088Z,16
2019-05-20T11:52:01.090Z,17
2019-05-20T11:53:01.089Z,16
2019-05-20T11:55:01.087Z,17
2019-05-20T11:57:01.088Z,16
2019-05-20T12:00:01.101Z,15
2019-05-20T12:02:03.805Z,17
2019-05-20T12:03:01.087Z,19
2019-05-20T12:04:01.088Z,21
2019-05-20T12:06:01.092Z,22
2019-05-20T12:07:01.087Z,23
2019-05-20T12:08:01.088Z,21
2019-05-20T12:09:01.091Z,19
2019-05-20T12:10:06.096Z,18
2019-05-20T12:11:01.158Z,15
2019-05-20T12:12:01.087Z,14
2019-05-20T12:13:01.091Z,15
2019-05-20T12:15:01.189Z,17
2019-05-20T12:16:01.087Z,20
2019-05-20T12:17:01.086Z,19
2019-05-20T12:18:01.087Z,18
2019-05-20T12:19:01.086Z,20
2019-05-20T12:20:01.112Z,19
2019-05-20T12:21:01.118Z,18
2019-05-20T12:22:01.086Z,19
2019-05-20T12:23:01.088Z,20
2019-05-20T12:24:01.088Z,19
2019-05-20T12:25:01.086Z,18
2019-05-20T12:26:01.087Z,17
2019-05-20T12:27:01.117Z,20
2019-05-20T12:28:01.133Z,19
2019-05-20T12:30:01.090Z,21
2019-05-20T12:32:03.416Z,20
2019-05-20T12:33:17.606Z,19
2019-05-20T12:34:01.057Z,18
2019-05-20T12:35:02.168Z,17
2019-05-20T12:36:01.088Z,16
2019-05-20T12:38:01.126Z,17
2019-05-20T12:39:01.091Z,16
2019-05-20T12:41:01.088Z,17
2019-05-20T12:42:01.093Z,16
2019-05-20T12:44:11.237Z,17
2019-05-20T12:45:01.086Z,16
2019-05-20T12:46:01.088Z,15
2019-05-20T12:47:01.089Z,14
2019-05-20T12:48:01.088Z,13
2019-05-20T12:49:01.197Z,14
2019-05-20T12:51:01.099Z,15
2019-05-20T12:52:01.088Z,16
2019-05-20T12:53:01.086Z,17
2019-05-20T12:54:01.087Z,16
2019-05-20T12:56:01.092Z,15
2019-05-20T12:57:01.087Z,16
2019-05-20T12:58:01.086Z,15
2019-05-20T12:59:01.104Z,16
2019-05-20T13:00:06.185Z,16
2019-05-20T13:02:01.089Z,17
2019-05-20T13:04:01.086Z,18
2019-05-20T13:05:01.088Z,19
2019-05-20T13:07:01.091Z,17
2019-05-20T13:08:01.121Z,18
2019-05-20T13:09:01.092Z,19
2019-05-20T13:10:02.933Z,17
2019-05-20T13:11:01.127Z,18
2019-05-20T13:12:01.086Z,17
2019-05-20T13:13:01.087Z,15
2019-05-20T13:14:01.088Z,13
2019-05-20T13:15:01.088Z,14
2019-05-20T13:17:01.085Z,17
2019-05-20T13:19:01.088Z,20
2019-05-20T13:20:01.097Z,19
2019-05-20T13:21:01.089Z,20
2019-05-20T13:22:01.088Z,19
2019-05-20T13:24:01.111Z,17
2019-05-20T13:26:01.087Z,16
2019-05-20T13:27:01.104Z,15
2019-05-20T13:28:01.124Z,16
2019-05-20T13:29:01.087Z,17
2019-05-20T13:30:01.116Z,18
2019-05-20T13:32:01.095Z,20
2019-05-20T13:34:01.110Z,18
2019-05-20T13:35:01.086Z,17
2019-05-20T13:37:01.120Z,16
2019-05-20T13:40:03.037Z,15
2019-05-20T13:41:01.121Z,18
2019-05-20T13:42:01.088Z,17
2019-05-20T13:43:01.130Z,16
2019-05-20T13:45:01.088Z,17
2019-05-20T13:46:01.092Z,15
2019-05-20T13:48:01.104Z,17
2019-05-20T13:49:01.087Z,18
2019-05-20T13:50:01.090Z,17
2019-05-20T13:53:01.087Z,14
2019-05-20T13:55:01.088Z,15
2019-05-20T13:56:01.088Z,14
2019-05-20T13:58:01.094Z,17
2019-05-20T14:00:01.117Z,16
2019-05-20T14:01:01.092Z,17
2019-05-20T14:02:01.154Z,18
2019-05-20T14:03:01.093Z,17
2019-05-20T14:04:01.113Z,18
2019-05-20T14:06:01.097Z,19
2019-05-20T14:07:01.115Z,16
2019-05-20T14:08:01.091Z,18
2019-05-20T14:10:01.118Z,19
2019-05-20T14:11:03.924Z,17
2019-05-20T14:12:01.116Z,18
2019-05-20T14:14:01.095Z,17
2019-05-20T14:15:01.097Z,18
2019-05-20T14:17:01.133Z,19
2019-05-20T14:18:01.092Z,18
2019-05-20T14:21:01.103Z,20
2019-05-20T14:22:01.365Z,19
2019-05-20T14:23:01.117Z,20
2019-05-20T14:25:01.103Z,19
2019-05-20T14:27:01.177Z,20
2019-05-20T14:28:01.247Z,19
2019-05-20T14:29:01.125Z,18
2019-05-20T14:30:01.108Z,20
2019-05-20T14:31:05.529Z,18
2019-05-20T14:34:01.368Z,19
2019-05-20T14:37:02.157Z,21
2019-05-20T14:38:01.125Z,20
2019-05-20T14:39:01.339Z,21
2019-05-20T14:40:01.101Z,20
2019-05-20T14:43:01.116Z,18
2019-05-20T14:44:01.084Z,19
2019-05-20T14:45:01.098Z,17
2019-05-20T14:46:01.085Z,16
2019-05-20T14:47:01.086Z,14
2019-05-20T14:49:02.520Z,15
2019-05-20T14:51:01.083Z,17
2019-05-20T14:52:01.094Z,18
2019-05-20T14:53:01.107Z,20
2019-05-20T14:55:01.087Z,19
2019-05-20T14:56:01.086Z,18
2019-05-20T14:57:01.083Z,19
2019-05-20T14:58:01.112Z,18
2019-05-20T14:59:01.086Z,19
2019-05-20T15:00:02.382Z,17
2019-05-20T15:01:01.087Z,16
2019-05-20T15:02:01.083Z,14
2019-05-20T15:03:01.108Z,13
2019-05-20T15:04:01.090Z,12
2019-05-20T15:06:01.085Z,13
2019-05-20T15:07:01.086Z,15
2019-05-20T15:08:01.126Z,16
2019-05-20T15:09:01.148Z,18
2019-05-20T15:10:01.088Z,19
2019-05-20T15:15:01.090Z,17
2019-05-20T15:16:01.090Z,18
2019-05-20T15:17:01.086Z,17
2019-05-20T15:18:01.104Z,16
2019-05-20T15:21:01.087Z,17
2019-05-20T15:22:01.087Z,18
2019-05-20T15:23:01.088Z,19
2019-05-20T15:24:01.123Z,18
2019-05-20T15:26:01.089Z,17
2019-05-20T15:27:01.138Z,16
2019-05-20T15:28:01.091Z,13
2019-05-20T15:29:01.090Z,15
2019-05-20T15:30:06.099Z,14
2019-05-20T15:31:01.099Z,16
2019-05-20T15:32:01.093Z,17
2019-05-20T15:33:01.088Z,20
2019-05-20T15:34:01.089Z,19
2019-05-20T15:37:01.125Z,18
2019-05-20T15:38:01.092Z,17
2019-05-20T15:39:01.089Z,18
2019-05-20T15:41:01.100Z,20
2019-05-20T15:42:01.184Z,19
2019-05-20T15:43:01.093Z,18
2019-05-20T15:44:01.088Z,17
2019-05-20T15:45:01.090Z,18
2019-05-20T15:46:01.092Z,17
2019-05-20T15:47:01.092Z,16
2019-05-20T15:48:01.119Z,19
2019-05-20T15:50:01.091Z,18
2019-05-20T15:51:01.092Z,17
2019-05-20T15:52:01.097Z,19
2019-05-20T15:53:01.135Z,16
2019-05-20T15:54:01.094Z,15
2019-05-20T15:58:01.091Z,16
2019-05-20T15:59:01.121Z,17
2019-05-20T16:00:01.091Z,16
2019-05-20T16:02:01.340Z,15
2019-05-20T16:03:01.140Z,14
2019-05-20T16:05:01.124Z,15
2019-05-20T16:06:01.112Z,16
2019-05-20T16:08:01.457Z,17
2019-05-20T16:09:01.092Z,16
2019-05-20T16:12:01.099Z,17
2019-05-20T16:14:01.155Z,18
2019-05-20T16:15:02.499Z,17
2019-05-20T16:16:01.106Z,19
2019-05-20T16:17:01.092Z,18
2019-05-20T16:19:01.091Z,16
2019-05-20T16:20:01.114Z,15
2019-05-20T16:21:01.090Z,14
2019-05-20T16:23:01.100Z,16
2019-05-20T16:25:01.126Z,15
2019-05-20T16:27:01.115Z,17
2019-05-20T16:28:01.104Z,14
2019-05-20T16:29:01.091Z,15
2019-05-20T16:30:06.446Z,15
2019-05-20T16:31:01.120Z,17
2019-05-20T16:32:01.093Z,15
2019-05-20T16:33:02.088Z,17
2019-05-20T16:34:01.101Z,16
2019-05-20T16:35:01.090Z,17
2019-05-20T16:36:01.090Z,16
2019-05-20T16:37:01.091Z,18
2019-05-20T16:39:01.096Z,20
2019-05-20T16:42:01.103Z,19
2019-05-20T16:44:01.102Z,18
2019-05-20T16:45:01.166Z,17
2019-05-20T16:46:01.092Z,18
2019-05-20T16:50:01.094Z,17
2019-05-20T16:52:01.094Z,16
2019-05-20T16:55:01.106Z,18
2019-05-20T16:57:01.094Z,17
2019-05-20T16:58:01.095Z,18
2019-05-20T16:59:02.220Z,19
2019-05-20T17:00:01.113Z,17
2019-05-20T17:01:01.094Z,16
2019-05-20T17:03:01.101Z,15
2019-05-20T17:04:01.093Z,14
2019-05-20T17:05:01.096Z,17
2019-05-20T17:06:06.109Z,16
2019-05-20T17:07:01.097Z,17
2019-05-20T17:09:01.612Z,16
2019-05-20T17:10:01.097Z,14
2019-05-20T17:12:01.094Z,13
2019-05-20T17:13:01.095Z,15
2019-05-20T17:14:01.100Z,16
2019-05-20T17:15:01.135Z,16
2019-05-20T17:16:06.100Z,15
2019-05-20T17:17:01.096Z,17
2019-05-20T17:18:01.099Z,16
2019-05-20T17:19:01.174Z,17
2019-05-20T17:20:06.106Z,16
2019-05-20T17:21:01.172Z,18
2019-05-20T17:24:01.098Z,19
2019-05-20T17:25:01.139Z,21
2019-05-20T17:26:01.102Z,19
2019-05-20T17:27:01.103Z,18
2019-05-20T17:28:01.095Z,20
2019-05-20T17:29:01.097Z,21
2019-05-20T17:30:01.127Z,19
2019-05-20T17:31:01.097Z,20
2019-05-20T17:33:01.099Z,18
2019-05-20T17:34:01.100Z,17
2019-05-20T17:35:01.129Z,16
2019-05-20T17:36:01.119Z,15
2019-05-20T17:38:01.101Z,16
2019-05-20T17:40:02.258Z,18
2019-05-20T17:41:01.100Z,20
2019-05-20T17:42:01.114Z,19
2019-05-20T17:43:01.105Z,17
2019-05-20T17:45:01.101Z,15
2019-05-20T17:46:06.108Z,14
2019-05-20T17:48:01.105Z,16
2019-05-20T17:51:06.101Z,15
2019-05-20T17:52:01.096Z,16
2019-05-20T17:53:01.105Z,15
2019-05-20T17:54:01.094Z,16
2019-05-20T17:55:01.100Z,18
2019-05-20T17:56:01.130Z,17
2019-05-20T17:57:02.880Z,16
2019-05-20T17:58:01.100Z,18
2019-05-20T17:59:01.096Z,17
2019-05-20T18:00:01.095Z,17
2019-05-20T18:01:14.544Z,19
2019-05-20T18:04:01.097Z,18
2019-05-20T18:07:06.111Z,17
2019-05-20T18:08:01.098Z,16
2019-05-20T18:09:01.114Z,17
2019-05-20T18:11:01.105Z,16
2019-05-20T18:12:06.117Z,18
2019-05-20T18:13:01.104Z,17
2019-05-20T18:15:01.099Z,17
2019-05-20T18:16:06.114Z,18
2019-05-20T18:18:01.100Z,19
2019-05-20T18:19:01.101Z,21
2019-05-20T18:21:01.100Z,20
2019-05-20T18:22:06.107Z,21
2019-05-20T18:23:01.100Z,18
2019-05-20T18:24:01.100Z,16
2019-05-20T18:25:01.101Z,17
2019-05-20T18:26:03.414Z,16
2019-05-20T18:27:06.102Z,15
2019-05-20T18:29:01.087Z,18
2019-05-20T18:30:01.086Z,17
2019-05-20T18:31:01.088Z,16
2019-05-20T18:32:06.105Z,19
2019-05-20T18:33:01.085Z,18
2019-05-20T18:34:01.086Z,16
2019-05-20T18:35:01.091Z,18
2019-05-20T18:36:01.088Z,17
2019-05-20T18:37:01.118Z,14
2019-05-20T18:38:01.110Z,17
2019-05-20T18:39:01.084Z,18
2019-05-20T18:41:01.086Z,20
2019-05-20T18:42:01.087Z,21
2019-05-20T18:43:01.090Z,18
2019-05-20T18:44:01.490Z,19
2019-05-20T18:45:01.089Z,17
2019-05-20T18:46:01.094Z,18
2019-05-20T18:47:01.083Z,17
2019-05-20T18:48:01.085Z,18
2019-05-20T18:49:01.083Z,17
2019-05-20T18:50:01.083Z,18
2019-05-20T18:51:01.083Z,17
2019-05-20T18:52:01.085Z,18
2019-05-20T18:54:01.082Z,19
2019-05-20T18:55:01.083Z,20
2019-05-20T18:56:01.084Z,18
2019-05-20T18:57:01.084Z,17
2019-05-20T19:00:01.087Z,15
2019-05-20T19:02:04.923Z,16
2019-05-20T19:05:01.084Z,17
2019-05-20T19:07:01.085Z,16
2019-05-20T19:11:01.128Z,17
2019-05-20T19:12:01.086Z,19
2019-05-20T19:13:01.089Z,17
2019-05-20T19:15:02.056Z,16
2019-05-20T19:16:01.086Z,15
2019-05-20T19:19:01.086Z,17
2019-05-20T19:23:01.086Z,16
2019-05-20T19:24:01.086Z,15
2019-05-20T19:25:01.940Z,16
2019-05-20T19:26:01.087Z,15
2019-05-20T19:27:01.087Z,16
2019-05-20T19:28:01.087Z,17
2019-05-20T19:29:01.087Z,18
2019-05-20T19:30:01.092Z,18
2019-05-20T19:33:01.087Z,20
2019-05-20T19:34:01.092Z,17
2019-05-20T19:35:01.090Z,16
2019-05-20T19:37:01.152Z,15
2019-05-20T19:38:01.117Z,16
2019-05-20T19:39:01.094Z,17
2019-05-20T19:42:01.088Z,15
2019-05-20T19:45:01.091Z,15
2019-05-20T19:46:01.093Z,14
2019-05-20T19:47:01.108Z,16
2019-05-20T19:48:01.121Z,14
2019-05-20T19:49:01.095Z,16
2019-05-20T19:51:01.099Z,17
2019-05-20T19:52:01.099Z,16
2019-05-20T19:53:06.104Z,15
2019-05-20T19:55:01.099Z,16
2019-05-20T19:56:06.101Z,17
2019-05-20T19:57:01.098Z,19
2019-05-20T19:58:06.106Z,22
2019-05-20T19:59:01.106Z,21
2019-05-20T20:00:01.121Z,21